Time;durP1;ratioP1;P1;durP2;ratioP2;P2;SDS_P1;SDS_P2;PMS_P1;PMS_P2;Temp;Humidity;BMP_temperature;BMP_pressure;BME280_temperature;BME280_humidity;BME280_pressure;Samples;Min_cycle;Max_cycle;Signal;HPM_P1;HPM_P2
2021/03/05 00:01:39;;;;;;;14.52;8.48;;;2.90;99.90;;;;;;5058539;28;20028;-74
2021/03/05 00:04:05;;;;;;;18.20;8.82;;;2.90;99.90;;;;;;5058148;28;20032;-74
2021/03/05 00:06:30;;;;;;;16.98;8.52;;;2.90;99.90;;;;;;5056563;28;20850;-74
2021/03/05 00:08:56;;;;;;;19.45;8.80;;;2.90;99.90;;;;;;5024279;28;20039;-74
2021/03/05 00:11:22;;;;;;;17.15;8.43;;;3.00;99.90;;;;;;5039756;28;20033;-74
2021/03/05 00:13:47;;;;;;;16.02;8.75;;;2.90;99.90;;;;;;5057134;28;20792;-74
2021/03/05 00:16:13;;;;;;;16.27;8.40;;;2.90;99.90;;;;;;5039510;28;20877;-74
2021/03/05 00:18:39;;;;;;;17.65;8.60;;;2.90;99.90;;;;;;5040238;28;20036;-74
2021/03/05 00:21:04;;;;;;;21.35;8.68;;;3.00;99.90;;;;;;5040040;28;20084;-74
2021/03/05 00:23:30;;;;;;;16.80;8.38;;;2.90;99.90;;;;;;5040456;28;20036;-74
2021/03/05 00:25:56;;;;;;;16.23;7.85;;;2.90;99.90;;;;;;5057900;28;20040;-74
2021/03/05 00:28:22;;;;;;;17.95;8.68;;;2.90;99.90;;;;;;5056610;28;20037;-74
2021/03/05 00:30:48;;;;;;;20.00;8.80;;;2.90;99.90;;;;;;5057377;28;20108;-74
2021/03/05 00:33:14;;;;;;;19.92;8.48;;;2.80;99.90;;;;;;5056125;28;20036;-74
2021/03/05 00:35:39;;;;;;;20.73;8.88;;;2.80;99.90;;;;;;5039942;28;20178;-74
2021/03/05 00:38:05;;;;;;;18.85;8.65;;;2.80;99.90;;;;;;5039828;28;20036;-76
2021/03/05 00:40:31;;;;;;;21.90;9.77;;;2.80;99.90;;;;;;5040476;28;20039;-76
2021/03/05 00:42:56;;;;;;;20.73;8.95;;;2.70;99.90;;;;;;5057132;28;20044;-76
2021/03/05 00:45:24;;;;;;;16.52;7.65;;;2.70;99.90;;;;;;5039468;28;20032;-75
2021/03/05 00:47:50;;;;;;;20.73;8.98;;;2.60;99.90;;;;;;5050553;28;20029;-75
2021/03/05 00:50:20;;;;;;;28.77;9.93;;;2.60;99.90;;;;;;5044020;28;20508;-75
2021/03/05 00:52:49;;;;;;;21.40;8.70;;;2.60;99.90;;;;;;5036121;28;20037;-75
2021/03/05 00:55:15;;;;;;;20.88;9.52;;;2.60;99.90;;;;;;5055685;28;20107;-75
2021/03/05 00:57:43;;;;;;;22.10;8.82;;;2.50;99.90;;;;;;5018990;28;20120;-75
2021/03/05 01:00:13;;;;;;;25.70;9.75;;;2.50;99.90;;;;;;5022030;28;20020;-75
2021/03/05 01:02:39;;;;;;;25.55;9.63;;;2.40;99.90;;;;;;5030384;28;20415;-75
2021/03/05 01:05:06;;;;;;;39.65;12.25;;;2.30;99.90;;;;;;5030927;28;20036;-76
2021/03/05 01:07:32;;;;;;;30.02;9.60;;;2.30;99.90;;;;;;5036744;28;20036;-75
2021/03/05 01:09:58;;;;;;;28.00;10.00;;;2.20;99.90;;;;;;5039375;28;20523;-75
2021/03/05 01:12:24;;;;;;;24.58;9.32;;;2.30;99.90;;;;;;5039052;28;20111;-76
2021/03/05 01:14:51;;;;;;;26.45;9.38;;;2.30;99.90;;;;;;5057894;28;20041;-76
2021/03/05 01:17:17;;;;;;;23.73;9.65;;;2.30;99.90;;;;;;5054368;28;20328;-76
2021/03/05 01:19:43;;;;;;;29.65;9.48;;;2.30;99.90;;;;;;5038879;28;20689;-76
2021/03/05 01:22:09;;;;;;;27.90;10.10;;;2.30;99.90;;;;;;5055453;28;20115;-76
2021/03/05 01:24:34;;;;;;;22.67;8.38;;;2.20;99.90;;;;;;5039021;28;20032;-76
2021/03/05 01:27:00;;;;;;;25.83;8.20;;;2.20;99.90;;;;;;5038868;28;20040;-76
2021/03/05 01:29:26;;;;;;;31.20;8.80;;;2.10;99.90;;;;;;5045237;28;20076;-76
2021/03/05 01:31:52;;;;;;;25.08;9.15;;;2.00;99.90;;;;;;5044217;28;20089;-76
2021/03/05 01:34:18;;;;;;;30.95;8.80;;;1.90;99.90;;;;;;5056724;28;20032;-77
2021/03/05 01:36:43;;;;;;;24.08;8.93;;;1.80;99.90;;;;;;5039166;28;20051;-76
2021/03/05 01:39:09;;;;;;;23.65;9.13;;;1.70;99.90;;;;;;5056732;28;20044;-76
2021/03/05 01:41:36;;;;;;;21.75;8.40;;;1.70;99.90;;;;;;5057456;28;20048;-76
2021/03/05 01:44:06;;;;;;;23.33;8.38;;;1.60;99.90;;;;;;5057270;28;20128;-76
2021/03/05 01:46:32;;;;;;;24.85;8.48;;;1.60;99.90;;;;;;5057009;28;20016;-76
2021/03/05 01:48:58;;;;;;;22.92;7.78;;;1.50;99.90;;;;;;5039066;28;20500;-76
2021/03/05 01:51:28;;;;;;;21.55;7.45;;;1.40;99.90;;;;;;5057072;28;20135;-76
2021/03/05 01:53:54;;;;;;;27.67;9.45;;;1.40;99.90;;;;;;5038691;28;20049;-76
2021/03/05 01:56:45;;;;;;;24.60;9.43;;;1.50;99.90;;;;;;5036614;28;20066;-76
2021/03/05 01:59:14;;;;;;;28.30;8.27;;;1.60;99.90;;;;;;5031923;28;20052;-76
2021/03/05 02:01:40;;;;;;;24.15;9.13;;;1.60;99.90;;;;;;5034906;28;20053;-76
2021/03/05 02:04:11;;;;;;;30.42;9.02;;;1.60;99.90;;;;;;5038882;28;20089;-76
2021/03/05 02:06:38;;;;;;;31.85;8.98;;;1.70;99.90;;;;;;5042528;28;20028;-76
2021/03/05 02:09:06;;;;;;;25.50;8.85;;;1.80;99.90;;;;;;5055192;28;20036;-76
2021/03/05 02:11:32;;;;;;;26.77;9.23;;;1.70;99.90;;;;;;5056385;28;20036;-76
2021/03/05 02:14:00;;;;;;;22.63;8.70;;;1.80;99.90;;;;;;5056063;28;20033;-76
2021/03/05 02:16:55;;;;;;;22.33;8.25;;;1.90;99.90;;;;;;5028378;28;20812;-76
2021/03/05 02:19:40;;;;;;;33.42;8.88;;;1.80;99.90;;;;;;5056286;28;20072;-76
2021/03/05 02:22:30;;;;;;;24.25;8.48;;;1.70;99.90;;;;;;5037456;28;20036;-76
2021/03/05 02:25:18;;;;;;;27.50;8.15;;;1.60;99.90;;;;;;5048594;28;20050;-77
2021/03/05 02:28:03;;;;;;;26.40;8.30;;;1.40;99.90;;;;;;5047928;28;20067;-76
2021/03/05 02:30:58;;;;;;;36.33;8.18;;;1.10;99.90;;;;;;5054359;28;20036;-77
2021/03/05 02:33:30;;;;;;;26.35;7.65;;;1.00;99.90;;;;;;5047429;28;20033;-75
2021/03/05 02:35:57;;;;;;;25.90;8.32;;;0.80;99.90;;;;;;5056035;28;20036;-76
2021/03/05 02:38:27;;;;;;;23.38;8.15;;;0.60;99.90;;;;;;5055777;28;20040;-76
2021/03/05 02:40:54;;;;;;;22.33;7.07;;;0.50;99.90;;;;;;5037802;28;20859;-76
2021/03/05 02:43:22;;;;;;;31.98;8.38;;;0.30;99.90;;;;;;5055794;28;20140;-76
2021/03/05 02:46:00;;;;;;;31.38;8.50;;;0.30;99.90;;;;;;5036746;28;20056;-76
2021/03/05 02:48:31;;;;;;;30.08;8.05;;;0.20;99.90;;;;;;5053188;28;20828;-76
2021/03/05 02:51:01;;;;;;;29.33;8.10;;;0.10;99.90;;;;;;5056259;28;20507;-75
2021/03/05 02:53:29;;;;;;;26.15;6.95;;;0.10;99.90;;;;;;5048509;28;20656;-76
2021/03/05 02:56:00;;;;;;;30.92;8.05;;;0.00;99.90;;;;;;5037228;28;20037;-76
2021/03/05 02:58:28;;;;;;;21.33;7.47;;;0.00;99.90;;;;;;5056124;28;20042;-75
2021/03/05 03:00:56;;;;;;;26.10;6.88;;;-0.10;99.90;;;;;;5052924;28;20041;-74
2021/03/05 03:03:23;;;;;;;23.50;7.05;;;-0.10;99.90;;;;;;5035433;28;20062;-75
2021/03/05 03:05:50;;;;;;;26.50;7.10;;;-0.10;99.90;;;;;;5025047;28;20031;-76
2021/03/05 03:08:18;;;;;;;26.98;7.78;;;-0.20;99.90;;;;;;5019628;28;20030;-76
2021/03/05 03:10:45;;;;;;;27.50;7.10;;;-0.30;99.90;;;;;;5041229;28;20040;-76
2021/03/05 03:13:12;;;;;;;21.73;7.30;;;-0.40;99.90;;;;;;5045630;28;20028;-75
2021/03/05 03:15:39;;;;;;;30.98;7.20;;;-0.40;99.90;;;;;;5031373;28;20329;-75
2021/03/05 03:18:08;;;;;;;18.08;6.25;;;-0.40;99.90;;;;;;5031898;28;20155;-75
2021/03/05 03:20:34;;;;;;;18.77;6.53;;;-0.40;99.90;;;;;;5054945;28;20036;-78
2021/03/05 03:23:00;;;;;;;21.10;6.93;;;-0.40;99.90;;;;;;5037404;28;20642;-75
2021/03/05 03:25:26;;;;;;;18.13;6.93;;;-0.50;99.90;;;;;;5021060;28;20074;-75
2021/03/05 03:27:53;;;;;;;19.23;7.68;;;-0.60;99.90;;;;;;5056029;28;20028;-75
2021/03/05 03:30:19;;;;;;;21.55;6.28;;;-0.50;99.90;;;;;;5037416;28;20036;-75
2021/03/05 03:32:46;;;;;;;24.95;7.03;;;-0.50;99.90;;;;;;5051211;28;20090;-75
2021/03/05 03:35:14;;;;;;;18.27;6.30;;;-0.40;99.90;;;;;;5033174;28;20041;-75
2021/03/05 03:37:41;;;;;;;21.20;6.65;;;-0.50;99.90;;;;;;5050209;28;20044;-75
2021/03/05 03:40:09;;;;;;;13.95;6.07;;;-0.50;99.90;;;;;;5039611;28;20043;-75
2021/03/05 03:42:35;;;;;;;17.80;7.15;;;-0.50;99.90;;;;;;5055241;28;20028;-75
2021/03/05 03:45:04;;;;;;;17.33;6.68;;;-0.50;99.90;;;;;;5036384;28;20044;-75
2021/03/05 03:47:31;;;;;;;19.10;6.47;;;-0.50;99.90;;;;;;5037225;28;20086;-75
2021/03/05 03:49:59;;;;;;;22.10;6.25;;;-0.50;99.90;;;;;;5053995;28;20043;-75
2021/03/05 03:52:49;;;;;;;18.23;6.30;;;-0.40;99.90;;;;;;5053152;28;20040;-75
2021/03/05 03:55:15;;;;;;;15.25;6.43;;;-0.50;99.90;;;;;;5052435;28;20039;-75
2021/03/05 03:57:46;;;;;;;16.60;6.05;;;-0.50;99.90;;;;;;5016824;28;20523;-75
2021/03/05 04:00:14;;;;;;;18.95;6.80;;;-0.60;99.90;;;;;;5032478;28;20037;-74
2021/03/05 04:02:44;;;;;;;21.85;6.80;;;-0.60;99.90;;;;;;5054215;28;20108;-75
2021/03/05 04:05:14;;;;;;;12.98;5.22;;;-0.60;99.90;;;;;;5054491;28;20115;-75
2021/03/05 04:07:42;;;;;;;12.13;6.30;;;-0.60;99.90;;;;;;5036199;28;20078;-75
2021/03/05 04:10:09;;;;;;;15.13;5.93;;;-0.70;99.90;;;;;;5012298;28;20075;-75
2021/03/05 04:12:35;;;;;;;15.27;5.93;;;-0.70;99.90;;;;;;5036161;28;20047;-75
2021/03/05 04:15:01;;;;;;;15.55;6.40;;;-0.70;99.90;;;;;;5054629;28;20123;-76
2021/03/05 04:17:28;;;;;;;15.70;6.05;;;-0.70;99.90;;;;;;5036851;28;20123;-76
2021/03/05 04:19:54;;;;;;;16.65;6.75;;;-0.70;99.90;;;;;;5036854;28;20716;-76
2021/03/05 04:22:21;;;;;;;15.20;6.57;;;-0.50;99.90;;;;;;5026562;28;20123;-76
2021/03/05 04:24:47;;;;;;;18.63;7.07;;;-0.50;99.90;;;;;;5036438;28;20032;-76
2021/03/05 04:27:13;;;;;;;17.75;6.88;;;-0.60;99.90;;;;;;5020494;28;20051;-76
2021/03/05 04:29:39;;;;;;;16.63;6.68;;;-0.50;99.90;;;;;;5020609;28;20036;-76
2021/03/05 04:32:05;;;;;;;14.75;7.35;;;-0.60;99.90;;;;;;5035961;28;20040;-76
2021/03/05 04:34:32;;;;;;;18.45;6.70;;;-0.60;99.90;;;;;;5056774;28;20041;-76
2021/03/05 04:36:58;;;;;;;19.80;7.40;;;-0.40;99.90;;;;;;5047149;28;20043;-77
2021/03/05 04:39:24;;;;;;;19.25;7.10;;;-0.50;99.90;;;;;;5021915;28;20064;-77
2021/03/05 04:41:50;;;;;;;17.92;7.43;;;-0.40;99.90;;;;;;5039624;28;20186;-76
2021/03/05 04:44:16;;;;;;;20.70;7.18;;;-0.50;99.90;;;;;;5057934;28;20469;-76
2021/03/05 04:46:42;;;;;;;14.50;7.18;;;-0.50;99.90;;;;;;5039339;28;20036;-78
2021/03/05 04:49:08;;;;;;;18.77;7.28;;;-0.60;99.90;;;;;;5039431;28;20032;-76
2021/03/05 04:51:34;;;;;;;16.75;7.68;;;-0.60;99.90;;;;;;5048397;28;20471;-76
2021/03/05 04:54:00;;;;;;;20.30;8.20;;;-0.60;99.90;;;;;;5036481;28;20048;-76
2021/03/05 04:56:26;;;;;;;27.05;9.30;;;-0.60;99.90;;;;;;5033547;28;20045;-76
2021/03/05 04:58:52;;;;;;;19.40;8.65;;;-0.50;99.90;;;;;;5057620;28;20036;-74
2021/03/05 05:01:18;;;;;;;23.08;8.73;;;-0.50;99.90;;;;;;5055269;28;20078;-76
2021/03/05 05:03:43;;;;;;;19.25;9.35;;;-0.40;99.90;;;;;;5031134;28;20156;-76
2021/03/05 05:06:10;;;;;;;27.55;9.45;;;-0.40;99.90;;;;;;5057302;28;20029;-76
2021/03/05 05:08:36;;;;;;;22.02;8.85;;;-0.40;99.90;;;;;;5054173;28;20037;-76
2021/03/05 05:11:02;;;;;;;22.02;9.93;;;-0.30;99.90;;;;;;5055624;28;20028;-77
2021/03/05 05:13:28;;;;;;;23.92;9.02;;;-0.20;99.90;;;;;;5039171;28;20182;-77
2021/03/05 05:15:54;;;;;;;28.98;9.95;;;-0.20;99.90;;;;;;5046798;28;20044;-77
2021/03/05 05:18:20;;;;;;;19.88;8.82;;;-0.20;99.90;;;;;;5027091;28;20036;-77
2021/03/05 05:20:46;;;;;;;18.05;7.78;;;-0.20;99.90;;;;;;5029114;28;20037;-77
2021/03/05 05:23:12;;;;;;;25.98;8.20;;;-0.30;99.90;;;;;;5053687;28;20433;-76
2021/03/05 05:25:37;;;;;;;15.13;8.00;;;-0.40;99.90;;;;;;5050712;28;20775;-76
2021/03/05 05:28:03;;;;;;;17.15;7.85;;;-0.50;99.90;;;;;;5026090;28;20037;-76
2021/03/05 05:30:29;;;;;;;13.85;7.22;;;-0.60;99.90;;;;;;5032369;28;20037;-77
2021/03/05 05:32:54;;;;;;;14.25;7.43;;;-0.70;99.90;;;;;;5021000;28;20064;-77
2021/03/05 05:35:20;;;;;;;13.80;7.15;;;-0.70;99.90;;;;;;5023980;28;20037;-76
2021/03/05 05:37:46;;;;;;;13.05;6.88;;;-0.90;99.90;;;;;;5036792;28;20029;-76
2021/03/05 05:40:12;;;;;;;12.48;6.43;;;-0.90;99.90;;;;;;5052766;28;20719;-76
2021/03/05 05:42:38;;;;;;;14.32;6.75;;;-1.00;99.90;;;;;;5024707;28;20555;-76
2021/03/05 05:45:05;;;;;;;13.90;6.10;;;-1.10;99.90;;;;;;5035212;28;20033;-76
2021/03/05 05:47:36;;;;;;;13.82;6.22;;;-1.20;99.90;;;;;;5045840;28;20028;-77
2021/03/05 05:50:05;;;;;;;17.75;7.10;;;-1.30;99.90;;;;;;5046621;28;20037;-76
2021/03/05 05:52:31;;;;;;;13.75;7.05;;;-1.30;99.90;;;;;;5034450;28;20064;-76
2021/03/05 05:54:59;;;;;;;12.00;6.55;;;-1.40;99.90;;;;;;5021723;28;20029;-76
2021/03/05 05:57:27;;;;;;;19.25;7.38;;;-1.40;99.90;;;;;;5048623;28;20036;-76
2021/03/05 05:59:57;;;;;;;15.43;7.05;;;-1.50;99.90;;;;;;5024191;28;20037;-76
2021/03/05 06:02:24;;;;;;;12.85;6.63;;;-1.50;99.90;;;;;;5049445;28;20516;-75
2021/03/05 06:04:56;;;;;;;14.75;7.47;;;-1.50;99.90;;;;;;5044691;28;20025;-76
2021/03/05 06:07:23;;;;;;;18.83;7.68;;;-1.50;99.90;;;;;;5027354;28;20187;-75
2021/03/05 06:09:50;;;;;;;24.33;8.45;;;-1.40;99.90;;;;;;5031417;28;20032;-74
2021/03/05 06:12:16;;;;;;;18.70;7.82;;;-1.50;99.90;;;;;;5035715;28;20023;-74
2021/03/05 06:14:42;;;;;;;18.40;7.85;;;-1.40;99.90;;;;;;5045413;28;20500;-77
2021/03/05 06:17:08;;;;;;;24.17;9.85;;;-1.50;99.90;;;;;;5029762;28;20040;-74
2021/03/05 06:19:34;;;;;;;19.38;8.50;;;-1.30;99.90;;;;;;5036929;28;20155;-75
2021/03/05 06:22:01;;;;;;;20.15;9.43;;;-1.30;99.90;;;;;;5048303;28;20033;-75
2021/03/05 06:24:28;;;;;;;19.67;9.27;;;-1.30;99.90;;;;;;5031934;28;20177;-73
2021/03/05 06:26:55;;;;;;;21.52;10.02;;;-1.30;99.90;;;;;;5053443;28;20044;-77
2021/03/05 06:29:23;;;;;;;27.77;10.82;;;-1.30;99.90;;;;;;5017290;28;20140;-75
2021/03/05 06:31:56;;;;;;;28.98;13.13;;;-1.30;99.90;;;;;;5047677;28;20067;-75
2021/03/05 06:34:23;;;;;;;21.80;9.50;;;-1.30;99.90;;;;;;5053675;28;20032;-75
2021/03/05 06:37:06;;;;;;;20.73;9.45;;;-1.20;99.90;;;;;;5052488;28;20048;-76
2021/03/05 06:39:34;;;;;;;19.55;9.18;;;-1.20;99.90;;;;;;5037957;28;20172;-76
2021/03/05 06:42:04;;;;;;;26.52;9.82;;;-1.20;99.90;;;;;;5050627;28;20040;-76
2021/03/05 06:44:31;;;;;;;24.23;9.93;;;-1.10;99.90;;;;;;5036512;28;20143;-76
2021/03/05 06:47:06;;;;;;;18.00;9.18;;;-1.00;99.90;;;;;;5036840;28;20225;-76
2021/03/05 06:49:31;;;;;;;13.90;6.63;;;-0.90;99.90;;;;;;5036931;28;20040;-77
2021/03/05 06:51:57;;;;;;;19.50;8.80;;;-0.80;99.90;;;;;;5052534;28;20032;-77
2021/03/05 06:54:29;;;;;;;22.27;10.48;;;-0.70;99.90;;;;;;5035276;28;20776;-77
2021/03/05 06:56:55;;;;;;;22.88;9.93;;;-0.60;99.90;;;;;;5037508;28;20048;-77
2021/03/05 06:59:22;;;;;;;24.77;9.82;;;-0.50;99.90;;;;;;5050404;28;20039;-77
2021/03/05 07:01:58;;;;;;;21.15;9.77;;;-0.40;99.90;;;;;;5056571;28;20035;-75
2021/03/05 07:04:24;;;;;;;;;;;-0.30;99.90;;;;;;5037485;28;20765;-76
2021/03/05 07:07:08;;;;;;;24.48;9.05;;;-0.10;99.90;;;;;;5041759;28;20350;-75
2021/03/05 07:09:35;;;;;;;19.92;10.10;;;0.00;99.90;;;;;;5043898;28;20122;-76
2021/03/05 07:12:08;;;;;;;27.40;10.82;;;0.10;99.90;;;;;;5041954;28;20053;-76
2021/03/05 07:14:34;;;;;;;24.55;11.05;;;0.30;99.90;;;;;;5051327;28;20454;-75
2021/03/05 07:17:00;;;;;;;17.98;9.60;;;0.40;99.90;;;;;;5026214;28;20055;-75
2021/03/05 07:19:29;;;;;;;22.17;9.43;;;0.50;99.90;;;;;;5031242;28;20497;-76
2021/03/05 07:21:56;;;;;;;24.60;9.95;;;0.60;99.90;;;;;;5047470;28;20033;-77
2021/03/05 07:24:24;;;;;;;20.23;9.32;;;0.60;99.90;;;;;;5016125;28;20043;-74
2021/03/05 07:26:56;;;;;;;21.55;9.90;;;0.80;99.90;;;;;;5030890;28;20465;-76
2021/03/05 07:29:26;;;;;;;17.88;9.60;;;0.90;99.90;;;;;;5054643;28;20083;-76
2021/03/05 07:32:06;;;;;;;20.40;9.23;;;1.00;99.90;;;;;;5044443;28;20032;-76
2021/03/05 07:34:54;;;;;;;20.20;8.73;;;1.10;99.90;;;;;;5031605;28;20041;-76
2021/03/05 07:37:25;;;;;;;15.98;6.85;;;1.30;99.90;;;;;;5028562;28;20043;-76
2021/03/05 07:39:54;;;;;;;15.25;7.40;;;1.60;99.90;;;;;;5052279;28;20120;-76
2021/03/05 07:42:21;;;;;;;13.07;6.18;;;2.00;99.90;;;;;;5052189;28;20117;-75
2021/03/05 07:44:52;;;;;;;9.70;5.93;;;2.20;99.90;;;;;;5037614;28;20040;-75
2021/03/05 07:47:19;;;;;;;9.30;5.55;;;2.30;99.90;;;;;;5031961;28;20029;-73
2021/03/05 07:49:45;;;;;;;13.63;5.88;;;2.60;99.90;;;;;;5029753;28;20037;-74
2021/03/05 07:52:12;;;;;;;12.65;6.07;;;2.70;99.90;;;;;;5044913;28;20784;-75
2021/03/05 07:54:41;;;;;;;11.50;5.70;;;2.80;99.90;;;;;;5050183;28;20025;-75
2021/03/05 07:57:08;;;;;;;9.65;5.20;;;2.90;99.90;;;;;;5038380;28;20047;-75
2021/03/05 07:59:40;;;;;;;11.73;4.95;;;3.10;99.90;;;;;;5048302;28;20044;-75
2021/03/05 08:02:07;;;;;;;14.25;5.18;;;3.40;99.90;;;;;;5014712;28;20135;-76
2021/03/05 08:04:52;;;;;;;12.75;5.75;;;3.40;99.90;;;;;;5039395;28;20040;-75
2021/03/05 08:07:26;;;;;;;10.40;5.45;;;3.70;99.90;;;;;;5042413;28;20021;-75
2021/03/05 08:09:52;;;;;;;9.45;5.35;;;3.60;99.90;;;;;;5059898;28;20036;-73
2021/03/05 08:15:07;;;;;;;8.82;4.90;;;3.80;99.90;;;;;;5039590;28;20059;-75
2021/03/05 08:17:43;;;;;;;10.65;5.22;;;4.00;99.90;;;;;;5042749;28;20115;-75
2021/03/05 08:20:30;;;;;;;10.13;4.82;;;4.10;99.90;;;;;;5047344;28;20175;-75
2021/03/05 08:22:58;;;;;;;12.32;6.07;;;4.30;99.90;;;;;;5022663;28;20143;-74
2021/03/05 08:25:46;;;;;;;15.57;6.55;;;4.60;99.90;;;;;;5013523;28;20039;-74
2021/03/05 08:28:35;;;;;;;14.80;5.68;;;4.80;99.90;;;;;;5036124;28;20036;-74
2021/03/05 08:31:01;;;;;;;19.88;10.00;;;5.00;99.90;;;;;;5025911;28;20142;-74
2021/03/05 08:33:28;;;;;;;16.65;7.97;;;5.10;99.90;;;;;;5022906;28;20048;-73
2021/03/05 08:35:54;;;;;;;14.60;6.93;;;4.90;99.90;;;;;;5044207;28;20824;-76
2021/03/05 08:38:30;;;;;;;15.30;7.90;;;4.50;99.90;;;;;;5043302;28;20662;-74
2021/03/05 08:41:03;;;;;;;15.43;7.88;;;4.40;99.90;;;;;;5052956;28;20103;-73
2021/03/05 08:43:31;;;;;;;15.80;8.27;;;4.50;99.90;;;;;;5047780;28;20032;-70
2021/03/05 08:46:08;;;;;;;16.27;7.47;;;4.70;99.90;;;;;;5051674;28;20032;-75
2021/03/05 08:48:42;;;;;;;11.07;6.43;;;4.80;99.90;;;;;;5040470;28;20040;-75
2021/03/05 08:51:20;;;;;;;16.77;7.40;;;4.80;99.90;;;;;;5058796;28;20029;-74
2021/03/05 08:53:49;;;;;;;15.95;7.43;;;5.10;99.90;;;;;;5037928;28;20062;-74
2021/03/05 08:56:20;;;;;;;14.02;7.47;;;5.30;99.90;;;;;;5040339;28;20290;-75
2021/03/05 08:59:05;;;;;;;18.42;9.77;;;5.20;99.90;;;;;;5040331;28;20119;-74
2021/03/05 09:01:35;;;;;;;19.98;10.32;;;5.20;99.90;;;;;;5056924;28;20055;-75
2021/03/05 09:04:07;;;;;;;16.55;8.40;;;5.00;99.90;;;;;;5039301;28;20036;-74
2021/03/05 09:06:33;;;;;;;16.60;9.73;;;4.80;99.90;;;;;;5057862;28;20081;-75
2021/03/05 09:09:12;;;;;;;14.45;7.68;;;5.10;99.90;;;;;;5048501;28;20033;-74
2021/03/05 09:11:38;;;;;;;16.48;9.27;;;5.20;99.90;;;;;;5015619;28;20037;-72
2021/03/05 09:14:42;;;;;;;18.33;9.77;;;5.10;99.90;;;;;;5040102;28;20032;-74
2021/03/05 09:17:10;;;;;;;13.90;7.05;;;5.40;99.90;;;;;;4974935;28;20042;-71
2021/03/05 09:19:44;;;;;;;12.80;7.35;;;5.60;99.90;;;;;;5033877;28;20040;-71
2021/03/05 09:22:24;;;;;;;33.05;16.60;;;5.90;99.90;;;;;;5022894;28;20548;-71
2021/03/05 09:24:58;;;;;;;17.95;8.40;;;6.10;99.90;;;;;;5030354;28;20190;-71
2021/03/05 09:27:33;;;;;;;18.80;9.10;;;5.70;99.90;;;;;;5051333;28;20037;-71
2021/03/05 09:30:00;;;;;;;89.75;38.67;;;5.40;99.90;;;;;;5033735;28;20033;-71
2021/03/05 09:32:26;;;;;;;41.65;16.50;;;5.10;99.90;;;;;;5050467;28;20073;-70
2021/03/05 09:34:59;;;;;;;27.38;11.40;;;4.90;99.90;;;;;;5050612;28;20055;-71
2021/03/05 09:37:28;;;;;;;23.65;9.48;;;4.80;99.90;;;;;;5047176;28;20047;-71
2021/03/05 09:39:57;;;;;;;29.67;13.80;;;5.10;99.90;;;;;;5057961;28;20082;-71
2021/03/05 09:42:52;;;;;;;30.20;12.60;;;5.70;99.90;;;;;;5039010;28;20134;-71
2021/03/05 09:45:43;;;;;;;22.27;10.23;;;6.40;99.90;;;;;;5027824;28;20032;-74
2021/03/05 09:48:33;;;;;;;34.40;15.63;;;6.50;99.90;;;;;;5039419;28;20085;-71
2021/03/05 09:51:01;;;;;;;22.88;10.45;;;6.10;99.90;;;;;;5057133;28;20024;-71
2021/03/05 09:53:34;;;;;;;19.75;8.27;;;6.00;99.90;;;;;;5056707;28;20033;-70
2021/03/05 09:56:01;;;;;;;22.83;9.48;;;6.20;99.90;;;;;;5035641;28;20033;-71
2021/03/05 09:58:27;;;;;;;14.85;7.22;;;6.30;99.90;;;;;;5052987;28;20051;-71
2021/03/05 10:00:53;;;;;;;18.13;7.63;;;6.20;99.90;;;;;;5056316;28;20504;-71
2021/03/05 10:03:19;;;;;;;17.17;8.00;;;5.90;99.90;;;;;;5054061;28;20563;-70
2021/03/05 10:05:45;;;;;;;14.75;6.97;;;5.70;99.90;;;;;;5056204;28;20082;-71
2021/03/05 10:08:14;;;;;;;12.02;5.93;;;5.60;99.90;;;;;;5056809;28;20119;-70
2021/03/05 10:10:55;;;;;;;14.68;6.10;;;6.00;99.90;;;;;;5046529;28;20500;-70
2021/03/05 10:13:20;;;;;;;9.73;4.80;;;6.30;99.90;;;;;;5032861;28;20089;-70
2021/03/05 10:15:52;;;;;;;13.73;5.00;;;6.60;99.90;;;;;;5038597;28;20028;-70
2021/03/05 10:18:21;;;;;;;27.85;4.78;;;6.90;99.90;;;;;;5049652;28;20039;-70
2021/03/05 10:20:51;;;;;;;12.93;4.47;;;6.90;99.70;;;;;;5037774;28;20194;-70
2021/03/05 10:23:17;;;;;;;14.70;6.57;;;7.00;99.60;;;;;;5021580;28;20032;-70
2021/03/05 10:25:50;;;;;;;14.10;3.85;;;7.00;99.90;;;;;;5033619;28;20032;-70
2021/03/05 10:28:23;;;;;;;11.52;4.45;;;7.10;98.50;;;;;;5053183;28;20837;-70
2021/03/05 10:30:50;;;;;;;9.55;4.45;;;7.60;97.90;;;;;;5051171;28;20037;-71
2021/03/05 10:33:34;;;;;;;8.38;4.47;;;7.90;95.90;;;;;;5046969;28;20044;-70
2021/03/05 10:36:00;;;;;;;8.85;4.40;;;8.30;97.40;;;;;;5026266;28;20583;-71
2021/03/05 10:38:25;;;;;;;6.55;3.20;;;8.30;96.00;;;;;;5037634;28;20139;-71
2021/03/05 10:40:53;;;;;;;7.72;4.13;;;8.00;94.90;;;;;;5052715;28;20381;-71
2021/03/05 10:43:19;;;;;;;10.73;5.05;;;7.30;94.80;;;;;;5053357;28;20028;-71
2021/03/05 10:45:44;;;;;;;8.15;2.72;;;7.20;96.20;;;;;;5055269;28;20040;-71
2021/03/05 10:48:10;;;;;;;10.50;4.40;;;7.30;92.10;;;;;;5050186;28;20036;-71
2021/03/05 10:50:36;;;;;;;13.02;4.28;;;7.50;91.80;;;;;;5046317;28;20044;-71
2021/03/05 10:53:02;;;;;;;10.45;2.92;;;8.00;90.80;;;;;;5027445;28;20033;-72
2021/03/05 10:55:27;;;;;;;14.20;6.35;;;8.00;86.90;;;;;;5050038;28;20041;-71
2021/03/05 10:57:53;;;;;;;10.63;5.20;;;8.10;90.20;;;;;;5055063;28;20033;-71
2021/03/05 11:00:19;;;;;;;6.05;2.88;;;8.20;88.00;;;;;;5049683;28;20107;-71
2021/03/05 11:02:45;;;;;;;23.65;12.98;;;8.50;87.70;;;;;;5049409;28;20470;-72
2021/03/05 11:05:11;;;;;;;40.42;5.18;;;8.80;80.30;;;;;;5028812;28;20028;-71
2021/03/05 11:07:37;;;;;;;12.40;7.03;;;9.10;69.60;;;;;;5051213;28;20535;-78
2021/03/05 11:10:03;;;;;;;9.77;6.05;;;8.90;70.60;;;;;;5044908;28;20036;-75
2021/03/05 11:12:29;;;;;;;10.98;6.57;;;8.70;68.30;;;;;;5032803;28;20038;-71
2021/03/05 11:14:54;;;;;;;6.90;3.97;;;8.50;71.30;;;;;;5052578;28;20036;-71
2021/03/05 11:17:21;;;;;;;5.05;2.20;;;8.60;70.10;;;;;;5035765;28;20127;-71
2021/03/05 11:19:47;;;;;;;7.32;2.83;;;8.50;69.20;;;;;;5055510;28;20098;-71
2021/03/05 11:22:13;;;;;;;3.85;1.88;;;8.40;72.40;;;;;;5035295;28;20039;-73
2021/03/05 11:24:39;;;;;;;14.32;1.80;;;8.60;70.00;;;;;;5032998;28;20409;-70
2021/03/05 11:27:05;;;;;;;2.50;1.73;;;9.00;70.40;;;;;;5052916;28;20025;-69
2021/03/05 11:29:31;;;;;;;6.88;4.03;;;9.00;67.60;;;;;;5035827;28;20036;-69
2021/03/05 11:31:57;;;;;;;12.95;4.90;;;8.90;69.40;;;;;;5056621;28;20047;-72
2021/03/05 11:34:23;;;;;;;13.45;5.63;;;8.80;67.60;;;;;;5040660;28;20040;-73
2021/03/05 11:36:50;;;;;;;17.52;3.60;;;8.40;67.10;;;;;;5021183;28;20040;-72
2021/03/05 11:39:16;;;;;;;7.13;1.90;;;8.30;68.80;;;;;;5057621;28;20032;-70
2021/03/05 11:41:42;;;;;;;4.07;1.80;;;8.30;70.40;;;;;;5057358;28;20063;-72
2021/03/05 11:44:07;;;;;;;4.20;1.95;;;8.20;69.70;;;;;;5054721;28;20822;-73
2021/03/05 11:46:33;;;;;;;5.07;1.67;;;8.80;66.10;;;;;;5040634;28;20042;-73
2021/03/05 11:48:59;;;;;;;3.63;1.73;;;9.30;66.50;;;;;;5032165;28;20107;-73
2021/03/05 11:51:25;;;;;;;3.05;1.40;;;9.70;63.30;;;;;;5053470;28;20033;-73
2021/03/05 11:53:50;;;;;;;4.65;1.50;;;9.50;60.90;;;;;;5055666;28;20032;-72
2021/03/05 11:56:17;;;;;;;5.80;1.42;;;9.00;62.80;;;;;;5057514;28;20111;-70
2021/03/05 11:58:42;;;;;;;8.75;2.13;;;9.00;63.70;;;;;;5029489;28;20037;-73
2021/03/05 12:01:08;;;;;;;2.80;1.33;;;9.10;62.00;;;;;;5056559;28;20041;-72
2021/03/05 12:03:34;;;;;;;2.67;1.20;;;9.10;64.10;;;;;;5039850;28;20039;-73
2021/03/05 12:06:00;;;;;;;8.57;2.20;;;9.70;60.70;;;;;;5058559;28;20036;-73
2021/03/05 12:08:27;;;;;;;20.63;6.47;;;10.10;59.80;;;;;;5047001;28;20032;-70
2021/03/05 12:10:52;;;;;;;9.05;4.22;;;10.20;58.60;;;;;;5037591;28;20032;-73
2021/03/05 12:13:18;;;;;;;14.05;5.80;;;10.20;59.40;;;;;;5059256;28;20742;-73
2021/03/05 12:15:45;;;;;;;10.15;7.07;;;10.50;59.60;;;;;;5054909;28;20063;-73
2021/03/05 12:18:11;;;;;;;5.47;2.60;;;10.50;57.20;;;;;;5055893;28;20036;-73
2021/03/05 12:20:37;;;;;;;5.10;1.65;;;10.90;58.50;;;;;;5051479;28;20047;-73
2021/03/05 12:23:04;;;;;;;2.97;1.83;;;11.70;53.50;;;;;;5052322;28;20055;-73
2021/03/05 12:25:30;;;;;;;4.55;1.40;;;12.30;52.70;;;;;;5049311;28;20025;-74
2021/03/05 12:27:57;;;;;;;17.67;1.60;;;12.40;51.10;;;;;;5050688;28;20036;-73
2021/03/05 12:30:23;;;;;;;2.45;1.00;;;12.80;50.10;;;;;;5053425;28;20035;-73
2021/03/05 12:32:49;;;;;;;9.30;1.63;;;12.50;50.20;;;;;;5052019;28;20218;-74
2021/03/05 12:35:15;;;;;;;5.15;1.23;;;11.80;51.60;;;;;;5052901;28;20134;-73
2021/03/05 12:37:42;;;;;;;10.25;5.43;;;12.30;50.50;;;;;;5036576;28;20037;-74
2021/03/05 12:40:09;;;;;;;4.38;2.72;;;12.80;50.70;;;;;;5029323;28;20094;-73
2021/03/05 12:42:35;;;;;;;7.53;2.17;;;12.90;49.50;;;;;;5051604;28;20076;-73
2021/03/05 12:45:06;;;;;;;4.93;1.00;;;13.00;46.80;;;;;;5056295;28;20036;-73
2021/03/05 12:47:33;;;;;;;2.70;1.17;;;12.30;50.20;;;;;;5050653;28;20040;-73
2021/03/05 12:49:59;;;;;;;3.58;1.52;;;12.20;48.80;;;;;;5044246;28;20029;-73
2021/03/05 12:52:25;;;;;;;8.88;5.70;;;12.60;48.30;;;;;;5050764;28;20067;-73
2021/03/05 12:54:51;;;;;;;13.40;2.10;;;12.60;47.70;;;;;;5055406;28;20107;-73